Time;durP1;ratioP1;P1;durP2;ratioP2;P2;SDS_P1;SDS_P2;PMS_P1;PMS_P2;Temp;Humidity;BMP_temperature;BMP_pressure;BME280_temperature;BME280_humidity;BME280_pressure;Samples;Min_cycle;Max_cycle;Signal;HPM_P1;HPM_P2
2021/09/10 00:00:13;;;;;;;10.55;5.80;;;;;;;22.40;44.62;101954.30;1723259;83;21062;-47
2021/09/10 00:02:40;;;;;;;8.80;6.15;;;;;;;22.40;44.75;101958.28;1723446;83;21632;-47
2021/09/10 00:05:08;;;;;;;9.70;6.62;;;;;;;22.38;44.87;101947.39;1727441;83;21026;-45
2021/09/10 00:07:35;;;;;;;10.20;6.00;;;;;;;22.36;45.11;101952.75;1758364;80;21441;-49
2021/09/10 00:10:03;;;;;;;12.93;7.10;;;;;;;22.35;45.33;101954.16;1776590;80;20969;-45
2021/09/10 00:12:30;;;;;;;8.68;5.60;;;;;;;22.32;45.42;101949.87;1776678;80;21488;-47
2021/09/10 00:14:57;;;;;;;11.05;5.87;;;;;;;22.31;45.48;101948.17;1780908;80;21072;-48
2021/09/10 00:17:25;;;;;;;9.58;5.50;;;;;;;22.30;45.41;101947.77;1786166;80;21002;-48
2021/09/10 00:19:51;;;;;;;8.43;5.67;;;;;;;22.29;45.27;101950.05;1780222;80;21458;-45
2021/09/10 00:22:18;;;;;;;7.92;5.42;;;;;;;22.27;45.04;101948.40;1777436;80;20943;-47
2021/09/10 00:24:44;;;;;;;9.15;5.45;;;;;;;22.25;44.89;101953.79;1776542;80;21475;-45
2021/09/10 00:27:11;;;;;;;7.70;5.35;;;;;;;22.23;44.83;101949.03;1777440;80;21029;-45
2021/09/10 00:29:39;;;;;;;8.50;6.75;;;;;;;22.21;44.54;101946.93;1779579;80;21025;-47
2021/09/10 00:32:06;;;;;;;9.05;6.00;;;;;;;22.20;44.69;101950.50;1787749;80;21457;-50
2021/09/10 00:34:33;;;;;;;10.30;5.90;;;;;;;22.19;44.57;101954.11;1777363;80;21065;-46
2021/09/10 00:36:59;;;;;;;7.85;5.42;;;;;;;22.18;44.20;101952.37;1776617;80;20984;-48
2021/09/10 00:39:26;;;;;;;9.28;5.78;;;;;;;22.17;44.20;101942.72;1777587;80;20982;-45
2021/09/10 00:41:52;;;;;;;9.25;5.42;;;;;;;22.14;44.06;101940.21;1780364;80;20989;-48
2021/09/10 00:44:19;;;;;;;8.40;6.10;;;;;;;22.13;44.11;101943.81;1779610;80;21069;-49
2021/09/10 00:46:46;;;;;;;14.07;5.37;;;;;;;22.13;44.11;101945.59;1779209;80;20986;-46
2021/09/10 00:49:14;;;;;;;10.95;5.95;;;;;;;22.12;44.12;101946.06;1779934;80;21045;-48
2021/09/10 00:51:41;;;;;;;8.98;5.85;;;;;;;22.12;44.05;101946.52;1749859;80;21001;-45
2021/09/10 00:54:07;;;;;;;8.83;5.55;;;;;;;22.12;44.06;101942.09;1776403;80;20954;-48
2021/09/10 00:56:34;;;;;;;7.20;5.33;;;;;;;22.10;44.07;101941.30;1776900;80;21029;-45
2021/09/10 00:59:05;;;;;;;7.17;5.30;;;;;;;22.09;43.73;101936.09;1786154;80;21530;-46
2021/09/10 01:01:32;;;;;;;7.85;5.20;;;;;;;22.06;43.20;101941.07;1778486;80;21069;-46
2021/09/10 01:04:01;;;;;;;8.68;5.30;;;;;;;22.03;43.10;101939.05;1776206;80;21030;-49
2021/09/10 01:06:29;;;;;;;8.85;6.37;;;;;;;22.00;43.35;101936.08;1765894;80;21470;-49
2021/09/10 01:08:58;;;;;;;12.90;6.53;;;;;;;21.98;43.71;101933.98;1765695;80;20994;-50
2021/09/10 01:11:25;;;;;;;8.03;6.42;;;;;;;21.95;44.26;101938.09;1767852;80;20993;-48
2021/09/10 01:13:52;;;;;;;7.90;6.47;;;;;;;21.93;45.16;101926.71;1768876;80;20994;-48
2021/09/10 01:16:19;;;;;;;12.47;7.22;;;;;;;21.92;46.09;101931.64;1780690;80;20978;-48
2021/09/10 01:18:47;;;;;;;13.30;7.25;;;;;;;21.91;46.87;101927.26;1770837;80;21499;-50
2021/09/10 01:21:14;;;;;;;14.00;6.90;;;;;;;21.90;46.48;101925.55;1766939;80;21002;-49
2021/09/10 01:23:42;;;;;;;10.28;7.55;;;;;;;21.89;46.05;101923.83;1766885;80;21026;-48
2021/09/10 01:26:09;;;;;;;12.20;6.65;;;;;;;21.90;46.10;101917.61;1765916;80;21030;-48
2021/09/10 01:28:36;;;;;;;9.78;6.90;;;;;;;21.91;46.29;101915.83;1767241;80;21454;-45
2021/09/10 01:31:02;;;;;;;12.55;6.92;;;;;;;21.93;46.37;101918.76;1769135;80;21033;-47
2021/09/10 01:33:29;;;;;;;11.28;7.70;;;;;;;21.94;46.29;101920.49;1775757;80;20998;-49
2021/09/10 01:35:57;;;;;;;11.30;7.55;;;;;;;21.97;46.53;101916.34;1765848;80;21033;-49
2021/09/10 01:38:25;;;;;;;9.43;6.33;;;;;;;22.00;46.96;101916.20;1766545;80;21478;-48
2021/09/10 01:40:52;;;;;;;9.08;6.22;;;;;;;22.01;46.54;101909.95;1775556;80;21022;-47
2021/09/10 01:43:20;;;;;;;9.13;5.67;;;;;;;22.01;45.90;101917.91;1768075;80;21034;-48
2021/09/10 01:45:47;;;;;;;10.75;6.35;;;;;;;22.00;45.97;101914.87;1779449;80;21470;-49
2021/09/10 01:48:13;;;;;;;7.65;5.83;;;;;;;21.99;46.34;101914.47;1767655;80;20994;-47
2021/09/10 01:50:42;;;;;;;11.30;6.15;;;;;;;21.99;46.70;101922.42;1768984;80;20994;-45
2021/09/10 01:53:09;;;;;;;10.98;6.55;;;;;;;21.95;46.85;101912.91;1765655;80;21016;-48
2021/09/10 01:55:36;;;;;;;8.85;5.85;;;;;;;21.94;46.97;101918.30;1765904;80;20998;-45
2021/09/10 01:58:02;;;;;;;12.37;5.95;;;;;;;21.92;46.37;101915.73;1767719;80;20989;-48
2021/09/10 02:00:31;;;;;;;12.25;6.08;;;;;;;21.91;45.59;101916.66;1769471;80;20998;-48
2021/09/10 02:02:57;;;;;;;10.28;6.62;;;;;;;21.90;45.22;101919.39;1768809;80;21522;-49
2021/09/10 02:05:24;;;;;;;13.22;6.80;;;;;;;21.89;45.80;101917.20;1768868;80;21069;-48
2021/09/10 02:07:50;;;;;;;9.65;6.17;;;;;;;21.89;46.52;101918.52;1768573;80;20994;-48
2021/09/10 02:10:18;;;;;;;11.85;6.80;;;;;;;21.90;46.77;101922.04;1766911;80;21018;-49
2021/09/10 02:12:44;;;;;;;11.22;6.50;;;;;;;21.90;45.88;101924.23;1765849;80;21052;-45
2021/09/10 02:15:11;;;;;;;8.08;5.67;;;;;;;21.88;45.56;101922.13;1770258;80;21009;-48
2021/09/10 02:17:39;;;;;;;16.00;6.78;;;;;;;21.89;45.41;101917.20;1771647;80;20942;-47
2021/09/10 02:20:09;;;;;;;11.05;6.92;;;;;;;21.89;45.06;101915.88;1762253;80;21048;-50
2021/09/10 02:22:37;;;;;;;7.85;5.78;;;;;;;21.85;44.74;101915.19;1769141;80;21018;-49
2021/09/10 02:25:07;;;;;;;11.03;6.35;;;;;;;21.84;44.68;101913.94;1770005;80;20974;-45
2021/09/10 02:27:33;;;;;;;11.22;6.35;;;;;;;21.80;44.56;101919.80;1765938;80;21497;-48
2021/09/10 02:30:03;;;;;;;9.35;6.22;;;;;;;21.78;44.76;101918.19;1770379;80;21053;-45
2021/09/10 02:32:31;;;;;;;13.35;6.92;;;;;;;21.75;44.80;101920.98;1765895;80;21013;-49
2021/09/10 02:34:57;;;;;;;9.43;6.58;;;;;;;21.72;44.53;101919.82;1765998;80;21021;-47
2021/09/10 02:37:24;;;;;;;14.68;7.15;;;;;;;21.70;44.45;101915.07;1767378;80;21041;-45
2021/09/10 02:39:52;;;;;;;9.95;6.95;;;;;;;21.70;45.12;101912.42;1769421;80;21083;-46
2021/09/10 02:42:20;;;;;;;9.88;7.37;;;;;;;21.67;45.22;101921.83;1768414;80;21477;-45
2021/09/10 02:44:47;;;;;;;9.58;6.85;;;;;;;21.64;45.06;101917.98;1777600;80;21022;-49
2021/09/10 02:47:15;;;;;;;12.37;7.25;;;;;;;21.61;44.72;101919.02;1766147;80;21018;-48
2021/09/10 02:49:43;;;;;;;9.98;7.67;;;;;;;21.58;44.63;101919.16;1762330;80;21049;-47
2021/09/10 02:52:11;;;;;;;11.80;7.55;;;;;;;21.53;44.77;101918.55;1772014;80;21014;-45
2021/09/10 02:54:40;;;;;;;10.20;7.33;;;;;;;21.52;44.82;101927.86;1769047;80;21045;-48
2021/09/10 02:57:06;;;;;;;16.00;7.78;;;;;;;21.49;44.84;101921.41;1768363;80;21038;-48
2021/09/10 02:59:33;;;;;;;11.05;7.58;;;;;;;21.45;45.24;101923.32;1766107;80;21438;-48
2021/09/10 03:02:00;;;;;;;12.35;7.30;;;;;;;21.43;45.78;101924.36;1765568;80;21006;-48
2021/09/10 03:04:28;;;;;;;17.98;8.23;;;;;;;21.39;45.97;101924.94;1768749;80;21092;-47
2021/09/10 03:06:55;;;;;;;11.60;7.83;;;;;;;21.37;46.13;101925.48;1773549;80;21125;-46
2021/09/10 03:09:21;;;;;;;13.22;8.28;;;;;;;21.37;46.10;101927.30;1772459;80;20986;-46
2021/09/10 03:11:48;;;;;;;13.50;8.53;;;;;;;21.37;46.31;101924.66;1771520;80;20989;-48
2021/09/10 03:14:14;;;;;;;12.85;8.33;;;;;;;21.38;46.09;101926.34;1771490;80;20953;-45
2021/09/10 03:16:41;;;;;;;16.95;8.15;;;;;;;21.38;46.31;101926.34;1779053;80;20969;-47
2021/09/10 03:19:09;;;;;;;12.82;8.23;;;;;;;21.37;46.28;101914.06;1778226;80;20978;-48
2021/09/10 03:21:39;;;;;;;12.10;8.23;;;;;;;21.38;46.24;101921.05;1773416;80;20997;-50
2021/09/10 03:24:06;;;;;;;16.27;8.28;;;;;;;21.38;45.94;101917.95;1773858;80;21026;-51
2021/09/10 03:26:36;;;;;;;12.68;7.87;;;;;;;21.37;45.33;101914.06;1772321;80;20975;-45
2021/09/10 03:29:02;;;;;;;12.25;7.62;;;;;;;21.36;45.27;101917.63;1782035;80;21029;-49
2021/09/10 03:31:30;;;;;;;11.43;7.55;;;;;;;21.34;45.23;101914.19;1774468;80;21010;-48
2021/09/10 03:33:57;;;;;;;10.08;7.60;;;;;;;21.32;45.23;101910.30;1772070;80;21020;-46
2021/09/10 03:36:23;;;;;;;9.40;6.87;;;;;;;21.30;45.09;101913.95;1771194;80;21001;-48
2021/09/10 03:38:50;;;;;;;11.53;7.70;;;;;;;21.28;45.24;101915.36;1772591;80;21020;-48
2021/09/10 03:41:16;;;;;;;14.68;8.48;;;;;;;21.27;45.82;101908.81;1773606;80;21510;-45
2021/09/10 03:43:44;;;;;;;12.82;7.90;;;;;;;21.24;45.86;101912.92;1772681;80;21080;-47
2021/09/10 03:46:11;;;;;;;16.57;7.67;;;;;;;21.22;45.74;101913.45;1772197;80;20981;-45
2021/09/10 03:48:37;;;;;;;13.90;8.18;;;;;;;21.19;45.50;101914.91;1771353;80;21473;-51
2021/09/10 03:51:04;;;;;;;12.13;8.20;;;;;;;21.15;45.84;101910.70;1787434;80;21053;-47
2021/09/10 03:53:31;;;;;;;12.33;8.40;;;;;;;21.15;45.86;101913.34;1773075;80;21489;-48
2021/09/10 03:55:58;;;;;;;12.25;8.33;;;;;;;21.13;46.01;101917.39;1772353;80;20974;-48
2021/09/10 03:58:24;;;;;;;14.47;8.23;;;;;;;21.11;46.32;101908.67;1775015;80;21061;-45
2021/09/10 04:00:53;;;;;;;10.98;7.72;;;;;;;21.08;46.68;101917.23;1770180;80;21013;-48
2021/09/10 04:03:21;;;;;;;12.90;8.68;;;;;;;21.05;47.08;101924.38;1774961;80;21021;-45
2021/09/10 04:05:48;;;;;;;16.82;8.50;;;;;;;21.03;47.05;101922.27;1774031;80;21100;-47
2021/09/10 04:08:16;;;;;;;15.65;8.25;;;;;;;21.02;47.05;101927.16;1774011;80;21010;-45
2021/09/10 04:10:43;;;;;;;14.38;8.38;;;;;;;21.02;46.79;101931.13;1771274;80;21009;-49
2021/09/10 04:13:11;;;;;;;13.05;8.20;;;;;;;21.04;46.46;101937.20;1771222;80;21037;-46
2021/09/10 04:15:39;;;;;;;15.95;9.53;;;;;;;21.06;46.41;101930.54;1772611;80;21534;-50
2021/09/10 04:18:05;;;;;;;15.18;8.63;;;;;;;21.07;46.41;101932.23;1774542;80;21050;-45
2021/09/10 04:20:34;;;;;;;13.30;8.50;;;;;;;21.06;46.42;101931.86;1772891;80;20998;-48
2021/09/10 04:23:02;;;;;;;13.88;8.35;;;;;;;21.04;46.32;101931.91;1774276;80;21014;-50
2021/09/10 04:25:29;;;;;;;11.70;8.43;;;;;;;21.03;46.15;101919.62;1785625;80;21042;-47
2021/09/10 04:27:56;;;;;;;13.55;8.88;;;;;;;21.03;46.26;101926.24;1771474;80;20978;-46
2021/09/10 04:30:23;;;;;;;14.65;8.48;;;;;;;21.02;46.47;101928.94;1771415;80;20969;-50
2021/09/10 04:32:49;;;;;;;13.68;9.20;;;;;;;21.01;46.52;101926.74;1774200;80;20974;-49
2021/09/10 04:35:16;;;;;;;17.48;9.43;;;;;;;21.00;46.50;101925.02;1774670;80;20988;-52
2021/09/10 04:37:43;;;;;;;14.10;8.68;;;;;;;20.98;46.44;101926.88;1774288;80;21017;-48
2021/09/10 04:40:12;;;;;;;11.75;8.55;;;;;;;20.97;46.63;101925.17;1774985;80;21458;-45
2021/09/10 04:42:38;;;;;;;17.62;9.63;;;;;;;20.98;46.76;101928.19;1774434;80;21568;-48
2021/09/10 04:45:07;;;;;;;13.65;8.20;;;;;;;20.97;46.65;101923.84;1771906;80;20965;-46
2021/09/10 04:47:33;;;;;;;13.65;8.15;;;;;;;20.98;46.45;101920.25;1771338;80;20985;-48
2021/09/10 04:50:00;;;;;;;11.03;8.13;;;;;;;20.99;46.58;101917.15;1772419;80;21353;-49
2021/09/10 04:52:27;;;;;;;16.50;8.10;;;;;;;21.01;46.33;101925.42;1774045;80;20954;-46
2021/09/10 04:54:54;;;;;;;10.20;8.55;;;;;;;21.02;46.07;101917.02;1772414;80;20954;-46
2021/09/10 04:57:21;;;;;;;11.85;8.43;;;;;;;21.03;45.79;101918.76;1776743;80;21502;-47
2021/09/10 04:59:48;;;;;;;12.50;7.75;;;;;;;21.04;45.55;101911.23;1769829;80;20973;-48
2021/09/10 05:02:15;;;;;;;12.05;9.18;;;;;;;21.05;45.47;101923.05;1772775;80;21021;-45
2021/09/10 05:04:42;;;;;;;10.43;7.87;;;;;;;21.05;45.69;101917.77;1774724;80;21470;-46
2021/09/10 05:07:10;;;;;;;10.90;8.13;;;;;;;21.07;45.80;101913.71;1773843;80;20989;-46
2021/09/10 05:09:37;;;;;;;17.75;8.78;;;;;;;21.06;45.60;101918.14;1775129;80;21005;-50
2021/09/10 05:12:06;;;;;;;16.50;9.05;;;;;;;21.06;45.79;101918.14;1773773;80;21049;-47
2021/09/10 05:14:34;;;;;;;18.32;7.78;;;;;;;21.05;45.76;101924.84;1778366;80;21530;-48
2021/09/10 05:17:00;;;;;;;11.95;8.30;;;;;;;21.05;45.30;101921.73;1774812;80;21009;-47
2021/09/10 05:19:27;;;;;;;11.95;8.33;;;;;;;21.06;45.35;101931.37;1781629;80;20982;-50
2021/09/10 05:21:53;;;;;;;14.60;9.08;;;;;;;21.06;45.47;101931.37;1775585;80;20974;-50
2021/09/10 05:24:20;;;;;;;12.55;8.13;;;;;;;21.08;45.25;101930.45;1782416;80;21022;-44
2021/09/10 05:26:47;;;;;;;14.35;7.87;;;;;;;21.06;44.74;101926.08;1774339;80;20986;-48
2021/09/10 05:29:14;;;;;;;12.35;8.53;;;;;;;21.08;44.72;101923.84;1771465;80;20954;-49
2021/09/10 05:31:41;;;;;;;12.07;8.78;;;;;;;21.07;44.91;101926.95;1771160;80;21580;-47
2021/09/10 05:34:07;;;;;;;12.10;8.63;;;;;;;21.09;44.91;101923.77;1775730;80;21010;-49
2021/09/10 05:36:34;;;;;;;13.13;8.70;;;;;;;21.08;44.98;101925.16;1771053;80;21005;-49
2021/09/10 05:39:01;;;;;;;11.63;7.55;;;;;;;21.09;45.12;101925.08;1771057;80;21092;-52
2021/09/10 05:41:28;;;;;;;12.40;8.25;;;;;;;21.12;44.96;101934.68;1773298;80;21528;-49
2021/09/10 05:43:55;;;;;;;14.28;8.28;;;;;;;21.15;44.65;101931.87;1774434;80;21001;-49
2021/09/10 05:46:21;;;;;;;11.03;8.33;;;;;;;21.19;44.53;101933.44;1785117;80;21064;-46
2021/09/10 05:48:49;;;;;;;14.85;8.78;;;;;;;21.22;44.52;101931.53;1772975;80;21485;-46
2021/09/10 05:51:16;;;;;;;15.45;9.30;;;;;;;21.28;44.43;101925.08;1775791;80;20973;-45
2021/09/10 05:53:42;;;;;;;16.95;9.00;;;;;;;21.34;44.36;101922.14;1779198;80;21009;-48
2021/09/10 05:56:09;;;;;;;17.52;8.50;;;;;;;21.39;44.25;101918.33;1784097;80;20958;-48
2021/09/10 05:58:37;;;;;;;14.33;9.03;;;;;;;21.49;43.85;101917.44;1781474;80;21528;-47
2021/09/10 06:01:03;;;;;;;12.53;8.15;;;;;;;21.60;43.67;101915.10;1767993;80;21004;-51
2021/09/10 06:03:30;;;;;;;14.35;9.20;;;;;;;21.68;43.59;101923.06;1782013;80;20978;-51
2021/09/10 06:05:56;;;;;;;14.07;9.15;;;;;;;21.78;43.32;101927.47;1771146;80;21038;-51
2021/09/10 06:08:25;;;;;;;14.95;9.60;;;;;;;21.88;43.33;101927.42;1718458;83;21053;-49
2021/09/10 06:10:53;;;;;;;15.20;8.60;;;;;;;21.99;43.13;101924.24;1743698;82;21062;-47
2021/09/10 06:13:20;;;;;;;13.90;9.45;;;;;;;22.09;42.87;101931.62;1751275;80;20963;-47
2021/09/10 06:15:47;;;;;;;12.63;8.85;;;;;;;22.17;42.40;101929.47;1710065;83;21081;-47
2021/09/10 06:18:14;;;;;;;18.62;9.58;;;;;;;22.23;42.05;101932.26;1742232;82;21069;-50
2021/09/10 06:20:42;;;;;;;12.70;8.53;;;;;;;22.29;42.09;101933.27;1700201;83;21069;-50
2021/09/10 06:23:09;;;;;;;14.73;9.00;;;;;;;22.32;42.20;101931.30;1667659;85;21049;-49
2021/09/10 06:25:36;;;;;;;14.63;9.73;;;;;;;22.36;42.40;101928.88;1676007;85;21018;-48
2021/09/10 06:28:03;;;;;;;18.30;11.10;;;;;;;22.44;42.34;101935.97;1741034;81;21001;-52
2021/09/10 06:30:30;;;;;;;13.43;10.10;;;;;;;22.52;42.24;101936.41;1739096;82;20982;-47
2021/09/10 06:32:57;;;;;;;15.53;10.28;;;;;;;22.59;42.08;101937.86;1707057;83;21043;-47
2021/09/10 06:35:23;;;;;;;12.82;9.55;;;;;;;22.70;42.00;101932.45;1700713;83;20991;-50
2021/09/10 06:37:51;;;;;;;13.50;8.80;;;;;;;22.81;41.62;101934.94;1700297;83;21565;-52
2021/09/10 06:40:18;;;;;;;12.60;9.23;;;;;;;22.93;41.42;101937.38;1702121;83;21063;-49
2021/09/10 06:42:45;;;;;;;17.48;8.63;;;;;;;22.98;41.24;101941.98;1672622;85;21123;-48
2021/09/10 06:45:13;;;;;;;20.15;9.00;;;;;;;23.04;41.27;101938.99;1701589;83;20990;-49
2021/09/10 06:47:39;;;;;;;14.03;8.38;;;;;;;23.06;41.15;101935.28;1700307;83;21022;-48
2021/09/10 06:50:09;;;;;;;14.78;8.63;;;;;;;23.06;41.17;101935.28;1713524;83;21494;-45
2021/09/10 06:52:38;;;;;;;14.87;9.40;;;;;;;23.05;41.09;101938.03;1680707;85;20996;-48
2021/09/10 06:55:06;;;;;;;15.38;9.05;;;;;;;23.04;41.37;101941.64;1674750;85;21038;-50
2021/09/10 06:57:33;;;;;;;16.17;8.70;;;;;;;23.02;41.53;101940.38;1741480;82;21033;-51
2021/09/10 07:00:00;;;;;;;12.93;8.53;;;;;;;23.02;41.48;101937.72;1700367;83;21077;-51
2021/09/10 07:02:26;;;;;;;13.48;8.70;;;;;;;23.04;42.00;101938.99;1700490;83;21085;-47
2021/09/10 07:04:53;;;;;;;14.73;8.48;;;;;;;23.05;42.22;101936.24;1740721;82;21506;-51
2021/09/10 07:07:20;;;;;;;9.78;8.38;;;;;;;23.07;42.28;101933.49;1771862;80;21053;-48
2021/09/10 07:09:48;;;;;;;10.03;8.15;;;;;;;23.07;42.50;101938.80;1768767;80;21053;-50
2021/09/10 07:12:14;;;;;;;9.95;8.35;;;;;;;23.06;42.95;101935.78;1768339;80;20987;-48
2021/09/10 07:14:43;;;;;;;14.13;9.00;;;;;;;23.11;42.98;101940.34;1770325;80;20979;-47
2021/09/10 07:17:10;;;;;;;19.17;9.30;;;;;;;23.24;43.15;101937.41;1768529;80;21081;-46
2021/09/10 07:19:37;;;;;;;13.38;8.63;;;;;;;23.25;43.13;101939.97;1775384;80;21002;-46
2021/09/10 07:22:05;;;;;;;20.32;7.92;;;;;;;23.34;43.14;101937.31;1768220;80;21038;-48
2021/09/10 07:24:33;;;;;;;14.68;8.40;;;;;;;23.47;43.03;101939.67;1765738;80;21013;-48
2021/09/10 07:26:59;;;;;;;14.90;9.13;;;;;;;23.59;43.06;101934.98;1765992;80;21447;-48
2021/09/10 07:29:26;;;;;;;16.12;8.73;;;;;;;23.71;42.89;101935.61;1768120;80;21112;-46
2021/09/10 07:31:54;;;;;;;12.47;8.43;;;;;;;23.79;42.78;101933.83;1767844;80;21018;-48
2021/09/10 07:34:21;;;;;;;16.27;8.65;;;;;;;23.91;42.64;101934.44;1768946;80;21061;-48
2021/09/10 07:36:52;;;;;;;13.50;8.28;;;;;;;23.96;42.42;101927.06;1774265;80;21096;-48
2021/09/10 07:39:20;;;;;;;13.40;8.70;;;;;;;23.99;42.49;101929.05;1776237;80;22332;-48
2021/09/10 07:41:47;;;;;;;22.27;9.03;;;;;;;24.00;42.73;101928.13;1779140;80;21691;-52
2021/09/10 07:44:16;;;;;;;12.88;8.70;;;;;;;24.03;43.11;101931.95;1774501;80;21006;-50
2021/09/10 07:46:43;;;;;;;11.80;8.38;;;;;;;24.02;43.39;101930.22;1772241;80;20996;-50
2021/09/10 07:49:10;;;;;;;16.10;9.03;;;;;;;24.01;43.66;101928.48;1771901;80;21499;-49
2021/09/10 07:51:38;;;;;;;10.48;7.87;;;;;;;24.00;43.57;101925.47;1773620;80;21005;-48
2021/09/10 07:54:06;;;;;;;13.08;6.20;;;;;;;24.02;43.68;101920.91;1773287;80;20974;-49
2021/09/10 07:56:34;;;;;;;6.67;5.78;;;;;;;24.05;42.41;101918.09;1704416;83;21117;-50
2021/09/10 07:59:01;;;;;;;9.93;5.40;;;;;;;24.11;41.96;101923.04;1710602;83;21531;-49
2021/09/10 08:01:27;;;;;;;12.55;6.00;;;;;;;24.21;41.23;101916.22;1713016;83;21482;-49
2021/09/10 08:03:55;;;;;;;12.05;5.92;;;;;;;24.32;40.51;101921.39;1714329;83;21018;-49
2021/09/10 08:06:22;;;;;;;10.28;5.58;;;;;;;24.38;40.34;101917.86;1704544;83;21047;-48
2021/09/10 08:08:49;;;;;;;10.93;6.10;;;;;;;24.44;40.26;101913.99;1709943;83;21561;-46
2021/09/10 08:11:16;;;;;;;8.60;6.20;;;;;;;24.47;40.90;101909.33;1699686;83;20991;-46
2021/09/10 08:13:44;;;;;;;8.28;5.90;;;;;;;24.51;40.86;101910.85;1712545;83;21463;-49
2021/09/10 08:16:12;;;;;;;6.25;5.60;;;;;;;24.58;41.30;101908.67;1711568;83;21086;-48
2021/09/10 08:18:39;;;;;;;8.70;5.80;;;;;;;24.62;41.21;101900.87;1716369;83;21037;-49
2021/09/10 08:21:06;;;;;;;10.25;6.28;;;;;;;24.71;40.98;101906.97;1706349;83;21539;-46
2021/09/10 08:23:34;;;;;;;7.45;5.58;;;;;;;24.79;40.41;101907.38;1699347;83;21046;-48
2021/09/10 08:26:01;;;;;;;9.45;6.15;;;;;;;24.84;40.52;101907.93;1718286;83;20998;-50
2021/09/10 08:28:30;;;;;;;9.93;6.35;;;;;;;24.90;41.27;101914.20;1708751;83;21074;-47
2021/09/10 08:30:57;;;;;;;10.90;6.40;;;;;;;24.98;42.23;101906.58;1694927;83;21085;-48
2021/09/10 08:33:24;;;;;;;7.20;5.95;;;;;;;25.03;42.60;101904.02;1692912;83;21077;-47
2021/09/10 08:35:51;;;;;;;10.38;7.10;;;;;;;25.08;42.95;101901.03;1704050;83;21014;-48
2021/09/10 08:38:18;;;;;;;10.82;6.60;;;;;;;25.13;42.82;101900.28;1708181;83;21538;-48
2021/09/10 08:40:46;;;;;;;14.00;6.90;;;;;;;25.20;43.55;101897.61;1706806;83;21043;-48
2021/09/10 08:43:13;;;;;;;9.70;7.08;;;;;;;25.20;43.55;101897.61;1652630;86;21056;-48
2021/09/10 08:45:41;;;;;;;10.00;7.12;;;;;;;25.25;43.69;101890.16;1692475;83;21094;-46
2021/09/10 08:48:10;;;;;;;11.30;6.72;;;;;;;25.28;44.00;101889.98;1777820;80;21037;-49
2021/09/10 08:50:38;;;;;;;9.73;6.60;;;;;;;25.34;44.15;101894.91;1770318;80;21517;-46
2021/09/10 08:53:05;;;;;;;10.95;6.37;;;;;;;25.38;44.05;101893.75;1776042;80;20938;-49
2021/09/10 08:55:32;;;;;;;6.83;5.87;;;;;;;25.42;43.71;101884.63;1762374;80;21033;-46
2021/09/10 08:57:58;;;;;;;9.60;6.17;;;;;;;25.51;43.30;101884.00;1767259;80;21450;-46
2021/09/10 09:00:34;;;;;;;10.10;6.22;;;;;;;25.51;43.30;101884.00;1768587;80;21017;-49
2021/09/10 09:03:07;;;;;;;9.08;5.67;;;;;;;25.65;43.13;101890.63;1782501;80;21009;-47
2021/09/10 09:05:34;;;;;;;7.47;4.92;;;;;;;25.70;41.78;101889.83;1773054;80;21142;-49
2021/09/10 09:08:09;;;;;;;7.20;5.50;;;;;;;25.70;41.78;101889.83;1771109;80;21046;-48
2021/09/10 09:10:57;;;;;;;8.40;5.30;;;;;;;25.75;41.26;101890.39;1764647;80;20997;-45
2021/09/10 09:13:30;;;;;;;8.15;5.47;;;;;;;25.84;40.27;101892.42;1777328;80;20990;-47
2021/09/10 09:16:24;;;;;;;5.97;4.72;;;;;;;25.84;40.27;101892.42;1701504;84;21030;-46
2021/09/10 09:18:55;;;;;;;9.18;5.55;;;;;;;25.96;39.99;101893.42;1704689;84;21070;-47
2021/09/10 09:21:33;;;;;;;12.03;5.05;;;;;;;25.96;39.99;101893.42;1750935;80;21032;-46
2021/09/10 09:24:21;;;;;;;8.40;5.37;;;;;;;26.06;39.61;101889.63;1762426;80;21018;-49
2021/09/10 09:26:51;;;;;;;10.20;5.33;;;;;;;26.06;39.61;101889.63;1762568;80;21002;-48
2021/09/10 09:29:22;;;;;;;6.97;5.08;;;;;;;26.10;39.47;101881.83;1756012;81;21006;-49
2021/09/10 09:31:58;;;;;;;10.35;5.58;;;;;;;26.17;38.94;101885.80;1756253;80;21564;-48
2021/09/10 09:34:48;;;;;;;7.00;5.30;;;;;;;26.22;38.47;101879.64;1712365;81;21029;-48
2021/09/10 09:37:18;;;;;;;5.45;4.65;;;;;;;26.27;38.14;101877.52;1728173;81;21441;-52
2021/09/10 09:39:52;;;;;;;9.68;5.17;;;;;;;26.30;38.29;101875.96;1644741;86;21042;-50
2021/09/10 09:42:28;;;;;;;9.05;5.30;;;;;;;26.34;38.17;101878.78;1634851;87;21089;-48
2021/09/10 09:45:23;;;;;;;11.40;4.83;;;;;;;26.36;37.93;101875.53;1597194;88;21058;-48
2021/09/10 09:47:51;;;;;;;7.47;4.85;;;;;;;26.41;37.84;101873.41;1536101;92;21134;-49
2021/09/10 09:50:20;;;;;;;7.92;4.35;;;;;;;26.47;37.87;101872.97;1536039;92;21100;-49
2021/09/10 09:52:51;;;;;;;8.43;4.62;;;;;;;26.51;37.77;101870.46;1536332;92;21081;-49
2021/09/10 09:55:18;;;;;;;7.55;4.58;;;;;;;26.55;37.39;101873.28;1536340;92;21165;-49
2021/09/10 09:57:45;;;;;;;9.75;4.62;;;;;;;26.60;37.42;101873.83;1536326;92;21057;-50
2021/09/10 10:00:14;;;;;;;7.67;5.25;;;;;;;26.64;37.36;101872.64;1536040;92;21077;-48
2021/09/10 10:02:40;;;;;;;6.85;4.55;;;;;;;26.69;37.37;101873.16;1535721;92;21062;-45
2021/09/10 10:05:09;;;;;;;8.13;3.90;;;;;;;26.73;37.52;101873.34;1536065;92;21108;-47
2021/09/10 10:07:44;;;;;;;7.70;5.05;;;;;;;26.76;37.51;101867.80;1528040;93;21105;-49
2021/09/10 10:10:15;;;;;;;7.05;4.15;;;;;;;26.78;37.10;101863.20;1475032;97;21098;-48
2021/09/10 10:12:47;;;;;;;9.35;4.85;;;;;;;26.78;36.21;101869.88;1434208;99;21153;-48
2021/09/10 10:15:26;;;;;;;5.42;4.30;;;;;;;26.85;36.65;101864.47;1425321;100;21191;-50
2021/09/10 10:17:54;;;;;;;6.05;4.65;;;;;;;26.89;37.27;101861.09;1424776;100;21633;-48
2021/09/10 10:20:48;;;;;;;7.20;4.42;;;;;;;26.91;37.43;101858.69;1416288;100;21134;-48
2021/09/10 10:23:49;;;;;;;7.80;4.67;;;;;;;26.92;37.57;101856.37;1380413;104;21180;-49
2021/09/10 10:26:33;;;;;;;8.15;4.62;;;;;;;26.96;37.86;101856.52;1411785;101;21182;-47
2021/09/10 10:29:09;;;;;;;7.25;4.75;;;;;;;26.99;38.04;101846.95;1409652;101;21063;-46
2021/09/10 10:32:01;;;;;;;14.53;5.97;;;;;;;27.01;38.02;101849.03;1403641;101;21109;-49
2021/09/10 10:34:28;;;;;;;10.95;5.20;;;;;;;27.05;38.47;101846.50;1425877;99;21101;-48
2021/09/10 10:36:57;;;;;;;6.35;5.05;;;;;;;27.08;38.38;101846.27;1439230;98;21209;-46
2021/09/10 10:39:29;;;;;;;6.83;4.97;;;;;;;27.10;38.38;101844.33;1470156;97;21105;-50
2021/09/10 10:42:03;;;;;;;8.23;4.80;;;;;;;27.12;38.51;101837.05;1484046;91;21132;-48
2021/09/10 10:44:41;;;;;;;9.68;4.78;;;;;;;27.15;38.23;101835.51;1594251;88;21019;-46
2021/09/10 10:47:11;;;;;;;7.35;4.75;;;;;;;27.16;38.24;101830.52;1639962;84;21069;-46
2021/09/10 10:49:46;;;;;;;10.08;4.70;;;;;;;27.17;38.26;101829.56;1655629;86;21050;-50
2021/09/10 10:52:38;;;;;;;9.88;5.25;;;;;;;27.21;38.10;101830.19;1671212;84;21601;-49
2021/09/10 10:55:31;;;;;;;8.30;4.72;;;;;;;27.23;37.79;101825.10;1672494;84;21032;-46
2021/09/10 10:58:24;;;;;;;7.45;4.75;;;;;;;27.26;37.66;101832.91;1645065;86;21143;-48
2021/09/10 11:01:02;;;;;;;7.45;4.58;;;;;;;27.29;37.44;101820.63;1723654;82;20974;-53
2021/09/10 11:03:31;;;;;;;11.03;4.97;;;;;;;27.31;37.55;101824.52;1750885;82;20993;-46
2021/09/10 11:05:58;;;;;;;8.38;4.92;;;;;;;27.32;37.77;101825.77;1748333;80;21482;-49
2021/09/10 11:08:45;;;;;;;6.72;5.03;;;;;;;27.35;37.63;101825.55;1774070;80;21034;-47
2021/09/10 11:11:11;;;;;;;11.48;4.78;;;;;;;27.37;37.59;101828.96;1770066;80;20986;-48
2021/09/10 11:13:43;;;;;;;9.00;4.50;;;;;;;27.39;37.54;101823.02;1773746;80;20959;-49
2021/09/10 11:16:10;;;;;;;6.87;5.33;;;;;;;27.42;37.39;101819.27;1774395;80;20954;-46
2021/09/10 11:18:38;;;;;;;6.62;4.40;;;;;;;27.43;37.44;101816.94;1772318;80;21514;-48
2021/09/10 11:21:07;;;;;;;15.43;4.80;;;;;;;27.44;37.17;101818.66;1775066;80;21021;-47
2021/09/10 11:23:38;;;;;;;6.78;5.00;;;;;;;27.45;37.44;101816.85;1769467;80;21005;-46
2021/09/10 11:26:07;;;;;;;19.25;7.42;;;;;;;27.42;37.69;101811.72;1770927;80;21011;-49